sensor_id;sensor_type;location;lat;lon;timestamp;pressure;altitude;pressure_sealevel;temperature
75273;BMP280;63869;52.344;16.928;2023-04-22T00:02:13;100808.88;;;11.07
75273;BMP280;63869;52.344;16.928;2023-04-22T00:04:40;100807.00;;;11.04
75273;BMP280;63869;52.344;16.928;2023-04-22T00:07:06;100805.84;;;11.01
75273;BMP280;63869;52.344;16.928;2023-04-22T00:09:31;100796.75;;;10.99
75273;BMP280;63869;52.344;16.928;2023-04-22T00:11:56;100802.50;;;10.97
75273;BMP280;63869;52.344;16.928;2023-04-22T00:14:23;100799.09;;;10.93
75273;BMP280;63869;52.344;16.928;2023-04-22T00:16:48;100796.84;;;10.92
75273;BMP280;63869;52.344;16.928;2023-04-22T00:19:14;100789.63;;;10.89
75273;BMP280;63869;52.344;16.928;2023-04-22T00:21:40;100793.06;;;10.86
75273;BMP280;63869;52.344;16.928;2023-04-22T00:24:07;100793.91;;;10.83
75273;BMP280;63869;52.344;16.928;2023-04-22T00:26:32;100796.22;;;10.81
75273;BMP280;63869;52.344;16.928;2023-04-22T00:28:58;100791.66;;;10.78
75273;BMP280;63869;52.344;16.928;2023-04-22T00:31:23;100784.09;;;10.73
75273;BMP280;63869;52.344;16.928;2023-04-22T00:33:49;100779.50;;;10.69
75273;BMP280;63869;52.344;16.928;2023-04-22T00:36:15;100780.34;;;10.66
75273;BMP280;63869;52.344;16.928;2023-04-22T00:38:47;100778.81;;;10.65
75273;BMP280;63869;52.344;16.928;2023-04-22T00:41:12;100780.38;;;10.63
75273;BMP280;63869;52.344;16.928;2023-04-22T00:43:38;100782.75;;;10.57
75273;BMP280;63869;52.344;16.928;2023-04-22T00:46:03;100780.84;;;10.54
75273;BMP280;63869;52.344;16.928;2023-04-22T00:48:29;100780.50;;;10.52
75273;BMP280;63869;52.344;16.928;2023-04-22T00:50:54;100778.28;;;10.47
75273;BMP280;63869;52.344;16.928;2023-04-22T00:53:20;100777.56;;;10.43
75273;BMP280;63869;52.344;16.928;2023-04-22T00:55:45;100781.41;;;10.42
75273;BMP280;63869;52.344;16.928;2023-04-22T00:58:10;100776.81;;;10.39
75273;BMP280;63869;52.344;16.928;2023-04-22T01:00:36;100781.47;;;10.35
75273;BMP280;63869;52.344;16.928;2023-04-22T01:03:01;100781.47;;;10.35
75273;BMP280;63869;52.344;16.928;2023-04-22T01:05:29;100788.00;;;10.30
75273;BMP280;63869;52.344;16.928;2023-04-22T01:07:55;100786.16;;;10.27
75273;BMP280;63869;52.344;16.928;2023-04-22T01:10:21;100793.03;;;10.25
75273;BMP280;63869;52.344;16.928;2023-04-22T01:12:46;100781.97;;;10.23
75273;BMP280;63869;52.344;16.928;2023-04-22T01:15:12;100788.09;;;10.20
75273;BMP280;63869;52.344;16.928;2023-04-22T01:17:37;100783.56;;;10.17
75273;BMP280;63869;52.344;16.928;2023-04-22T01:20:03;100781.31;;;10.12
75273;BMP280;63869;52.344;16.928;2023-04-22T01:22:35;100787.84;;;10.07
75273;BMP280;63869;52.344;16.928;2023-04-22T01:25:02;100784.81;;;10.05
75273;BMP280;63869;52.344;16.928;2023-04-22T01:27:27;100786.00;;;10.00
75273;BMP280;63869;52.344;16.928;2023-04-22T01:29:53;100794.81;;;9.97
75273;BMP280;63869;52.344;16.928;2023-04-22T01:32:18;100787.22;;;9.92
75273;BMP280;63869;52.344;16.928;2023-04-22T01:34:44;100786.47;;;9.88
75273;BMP280;63869;52.344;16.928;2023-04-22T01:37:09;100790.31;;;9.87
75273;BMP280;63869;52.344;16.928;2023-04-22T01:39:35;100786.16;;;9.83
75273;BMP280;63869;52.344;16.928;2023-04-22T01:42:02;100780.47;;;9.77
75273;BMP280;63869;52.344;16.928;2023-04-22T01:44:27;100780.88;;;9.76
75273;BMP280;63869;52.344;16.928;2023-04-22T01:46:53;100778.22;;;9.72
75273;BMP280;63869;52.344;16.928;2023-04-22T01:49:18;100776.34;;;9.69
75273;BMP280;63869;52.344;16.928;2023-04-22T01:51:43;100771.81;;;9.66
75273;BMP280;63869;52.344;16.928;2023-04-22T01:54:09;100778.31;;;9.65
75273;BMP280;63869;52.344;16.928;2023-04-22T01:56:35;100774.88;;;9.61
75273;BMP280;63869;52.344;16.928;2023-04-22T01:59:00;100776.81;;;9.57
75273;BMP280;63869;52.344;16.928;2023-04-22T02:01:25;100773.78;;;9.55
75273;BMP280;63869;52.344;16.928;2023-04-22T02:03:51;100772.28;;;9.50
75273;BMP280;63869;52.344;16.928;2023-04-22T02:06:16;100768.53;;;9.48
75273;BMP280;63869;52.344;16.928;2023-04-22T02:08:41;100762.41;;;9.44
75273;BMP280;63869;52.344;16.928;2023-04-22T02:11:07;100766.63;;;9.41
75273;BMP280;63869;52.344;16.928;2023-04-22T02:13:36;100767.78;;;9.40
75273;BMP280;63869;52.344;16.928;2023-04-22T02:16:01;100772.00;;;9.38
75273;BMP280;63869;52.344;16.928;2023-04-22T02:18:27;100769.34;;;9.34
75273;BMP280;63869;52.344;16.928;2023-04-22T02:20:52;100761.75;;;9.32
75273;BMP280;63869;52.344;16.928;2023-04-22T02:23:18;100767.06;;;9.32
75273;BMP280;63869;52.344;16.928;2023-04-22T02:25:50;100765.19;;;9.29
75273;BMP280;63869;52.344;16.928;2023-04-22T02:28:16;100762.16;;;9.27
75273;BMP280;63869;52.344;16.928;2023-04-22T02:30:41;100762.53;;;9.26
75273;BMP280;63869;52.344;16.928;2023-04-22T02:33:07;100750.34;;;9.25
75273;BMP280;63869;52.344;16.928;2023-04-22T02:35:32;100759.50;;;9.24
75273;BMP280;63869;52.344;16.928;2023-04-22T02:37:57;100748.88;;;9.20
75273;BMP280;63869;52.344;16.928;2023-04-22T02:40:22;100748.91;;;9.17
75273;BMP280;63869;52.344;16.928;2023-04-22T02:42:48;100753.47;;;9.16
75273;BMP280;63869;52.344;16.928;2023-04-22T02:45:13;100747.75;;;9.14
75273;BMP280;63869;52.344;16.928;2023-04-22T02:47:39;100743.97;;;9.12
75273;BMP280;63869;52.344;16.928;2023-04-22T02:50:05;100740.94;;;9.10
75273;BMP280;63869;52.344;16.928;2023-04-22T02:52:32;100749.69;;;9.10
75273;BMP280;63869;52.344;16.928;2023-04-22T02:54:58;100743.59;;;9.06
75273;BMP280;63869;52.344;16.928;2023-04-22T02:57:24;100746.66;;;9.05
75273;BMP280;63869;52.344;16.928;2023-04-22T02:59:50;100749.00;;;9.03
75273;BMP280;63869;52.344;16.928;2023-04-22T03:02:15;100742.88;;;9.02
75273;BMP280;63869;52.344;16.928;2023-04-22T03:04:40;100738.34;;;8.99
75273;BMP280;63869;52.344;16.928;2023-04-22T03:07:06;100744.41;;;8.96
75273;BMP280;63869;52.344;16.928;2023-04-22T03:09:31;100744.41;;;8.96
75273;BMP280;63869;52.344;16.928;2023-04-22T03:11:56;100746.69;;;8.94
75273;BMP280;63869;52.344;16.928;2023-04-22T03:14:22;100742.53;;;8.93
75273;BMP280;63869;52.344;16.928;2023-04-22T03:16:47;100730.75;;;8.87
75273;BMP280;63869;52.344;16.928;2023-04-22T03:19:12;100738.38;;;8.88
75273;BMP280;63869;52.344;16.928;2023-04-22T03:21:37;100735.72;;;8.88
75273;BMP280;63869;52.344;16.928;2023-04-22T03:24:03;100726.97;;;8.84
75273;BMP280;63869;52.344;16.928;2023-04-22T03:26:28;100732.28;;;8.84
75273;BMP280;63869;52.344;16.928;2023-04-22T03:28:53;100732.31;;;8.81
75273;BMP280;63869;52.344;16.928;2023-04-22T03:31:19;100726.97;;;8.81
75273;BMP280;63869;52.344;16.928;2023-04-22T03:33:44;100730.78;;;8.80
75273;BMP280;63869;52.344;16.928;2023-04-22T03:36:09;100731.19;;;8.78
75273;BMP280;63869;52.344;16.928;2023-04-22T03:38:35;100738.41;;;8.78
75273;BMP280;63869;52.344;16.928;2023-04-22T03:41:00;100732.72;;;8.76
75273;BMP280;63869;52.344;16.928;2023-04-22T03:43:25;100722.44;;;8.74
75273;BMP280;63869;52.344;16.928;2023-04-22T03:45:51;100724.72;;;8.76
75273;BMP280;63869;52.344;16.928;2023-04-22T03:48:16;100719.41;;;8.72
75273;BMP280;63869;52.344;16.928;2023-04-22T03:50:41;100731.56;;;8.73
75273;BMP280;63869;52.344;16.928;2023-04-22T03:53:06;100724.34;;;8.74
75273;BMP280;63869;52.344;16.928;2023-04-22T03:55:32;100724.34;;;8.74
75273;BMP280;63869;52.344;16.928;2023-04-22T03:57:58;100729.31;;;8.72
75273;BMP280;63869;52.344;16.928;2023-04-22T04:00:23;100734.63;;;8.75
75273;BMP280;63869;52.344;16.928;2023-04-22T04:02:48;100731.56;;;8.73
75273;BMP280;63869;52.344;16.928;2023-04-22T04:05:14;100735.38;;;8.76
75273;BMP280;63869;52.344;16.928;2023-04-22T04:07:39;100736.91;;;8.77
75273;BMP280;63869;52.344;16.928;2023-04-22T04:10:05;100733.09;;;8.78
75273;BMP280;63869;52.344;16.928;2023-04-22T04:12:31;100725.47;;;8.80
75273;BMP280;63869;52.344;16.928;2023-04-22T04:14:56;100733.81;;;8.82
75273;BMP280;63869;52.344;16.928;2023-04-22T04:17:22;100729.25;;;8.82
75273;BMP280;63869;52.344;16.928;2023-04-22T04:19:51;100722.75;;;8.87
75273;BMP280;63869;52.344;16.928;2023-04-22T04:22:16;100729.22;;;8.89
75273;BMP280;63869;52.344;16.928;2023-04-22T04:24:42;100720.03;;;8.94
75273;BMP280;63869;52.344;16.928;2023-04-22T04:27:08;100729.19;;;9.00
75273;BMP280;63869;52.344;16.928;2023-04-22T04:29:34;100724.19;;;9.06
75273;BMP280;63869;52.344;16.928;2023-04-22T04:32:00;100715.00;;;9.10
75273;BMP280;63869;52.344;16.928;2023-04-22T04:34:25;100730.19;;;9.20
75273;BMP280;63869;52.344;16.928;2023-04-22T04:36:50;100721.75;;;9.25
75273;BMP280;63869;52.344;16.928;2023-04-22T04:39:16;100726.72;;;9.23
75273;BMP280;63869;52.344;16.928;2023-04-22T04:41:41;100722.19;;;9.20
75273;BMP280;63869;52.344;16.928;2023-04-22T04:44:07;100732.13;;;9.20
75273;BMP280;63869;52.344;16.928;2023-04-22T04:46:33;100723.75;;;9.14
75273;BMP280;63869;52.344;16.928;2023-04-22T04:48:59;100735.16;;;9.18
75273;BMP280;63869;52.344;16.928;2023-04-22T04:51:25;100733.66;;;9.17
75273;BMP280;63869;52.344;16.928;2023-04-22T04:53:51;100728.75;;;9.09
75273;BMP280;63869;52.344;16.928;2023-04-22T04:56:16;100736.69;;;9.12
75273;BMP280;63869;52.344;16.928;2023-04-22T04:58:41;100733.69;;;9.10
75273;BMP280;63869;52.344;16.928;2023-04-22T05:01:07;100731.78;;;9.07
75273;BMP280;63869;52.344;16.928;2023-04-22T05:03:32;100721.13;;;9.04
75273;BMP280;63869;52.344;16.928;2023-04-22T05:05:57;100730.22;;;9.13
75273;BMP280;63869;52.344;16.928;2023-04-22T05:08:22;100719.53;;;9.20
75273;BMP280;63869;52.344;16.928;2023-04-22T05:10:48;100721.78;;;9.22
75273;BMP280;63869;52.344;16.928;2023-04-22T05:13:13;100720.28;;;9.21
75273;BMP280;63869;52.344;16.928;2023-04-22T05:15:38;100730.50;;;9.29
75273;BMP280;63869;52.344;16.928;2023-04-22T05:18:04;100730.84;;;9.39
75273;BMP280;63869;52.344;16.928;2023-04-22T05:20:30;100735.34;;;9.49
75273;BMP280;63869;52.344;16.928;2023-04-22T05:22:55;100734.13;;;9.57
75273;BMP280;63869;52.344;16.928;2023-04-22T05:25:21;100736.38;;;9.58
75273;BMP280;63869;52.344;16.928;2023-04-22T05:27:46;100733.69;;;9.65
75273;BMP280;63869;52.344;16.928;2023-04-22T05:30:11;100737.03;;;9.73
75273;BMP280;63869;52.344;16.928;2023-04-22T05:32:36;100735.47;;;9.79
75273;BMP280;63869;52.344;16.928;2023-04-22T05:35:02;100739.16;;;9.89
75273;BMP280;63869;52.344;16.928;2023-04-22T05:37:27;100736.81;;;9.98
75273;BMP280;63869;52.344;16.928;2023-04-22T05:39:53;100728.69;;;10.09
75273;BMP280;63869;52.344;16.928;2023-04-22T05:42:19;100731.59;;;10.21
75273;BMP280;63869;52.344;16.928;2023-04-22T05:44:44;100734.16;;;10.32
75273;BMP280;63869;52.344;16.928;2023-04-22T05:47:09;100727.59;;;10.40
75273;BMP280;63869;52.344;16.928;2023-04-22T05:49:35;100727.84;;;10.49
75273;BMP280;63869;52.344;16.928;2023-04-22T05:52:00;100734.25;;;10.55
75273;BMP280;63869;52.344;16.928;2023-04-22T05:54:25;100734.91;;;10.63
75273;BMP280;63869;52.344;16.928;2023-04-22T05:56:51;100742.75;;;10.77
75273;BMP280;63869;52.344;16.928;2023-04-22T05:59:17;100740.75;;;10.85
75273;BMP280;63869;52.344;16.928;2023-04-22T06:01:42;100746.31;;;10.97
75273;BMP280;63869;52.344;16.928;2023-04-22T06:04:09;100743.16;;;11.06
75273;BMP280;63869;52.344;16.928;2023-04-22T06:06:35;100741.47;;;11.16
75273;BMP280;63869;52.344;16.928;2023-04-22T06:09:01;100739.78;;;11.25
75273;BMP280;63869;52.344;16.928;2023-04-22T06:11:26;100745.25;;;11.41
75273;BMP280;63869;52.344;16.928;2023-04-22T06:13:53;100752.38;;;11.52
75273;BMP280;63869;52.344;16.928;2023-04-22T06:16:18;100745.34;;;11.61
75273;BMP280;63869;52.344;16.928;2023-04-22T06:18:44;100750.16;;;11.70
75273;BMP280;63869;52.344;16.928;2023-04-22T06:21:09;100750.00;;;11.77
75273;BMP280;63869;52.344;16.928;2023-04-22T06:23:35;100747.91;;;11.88
75273;BMP280;63869;52.344;16.928;2023-04-22T06:26:00;100753.84;;;11.99
75273;BMP280;63869;52.344;16.928;2023-04-22T06:28:26;100754.38;;;12.10
75273;BMP280;63869;52.344;16.928;2023-04-22T06:30:51;100752.25;;;12.22
75273;BMP280;63869;52.344;16.928;2023-04-22T06:33:17;100749.78;;;12.31
75273;BMP280;63869;52.344;16.928;2023-04-22T06:35:42;100736.91;;;12.42
75273;BMP280;63869;52.344;16.928;2023-04-22T06:38:07;100734.78;;;12.53
75273;BMP280;63869;52.344;16.928;2023-04-22T06:40:33;100731.94;;;12.60
75273;BMP280;63869;52.344;16.928;2023-04-22T06:42:58;100731.69;;;12.71
75273;BMP280;63869;52.344;16.928;2023-04-22T06:45:24;100736.41;;;12.83
75273;BMP280;63869;52.344;16.928;2023-04-22T06:47:51;100731.63;;;12.91
75273;BMP280;63869;52.344;16.928;2023-04-22T06:50:17;100736.31;;;13.03
75273;BMP280;63869;52.344;16.928;2023-04-22T06:52:43;100736.09;;;13.13
75273;BMP280;63869;52.344;16.928;2023-04-22T06:55:09;100740.84;;;13.22
75273;BMP280;63869;52.344;16.928;2023-04-22T06:57:34;100736.84;;;13.30
75273;BMP280;63869;52.344;16.928;2023-04-22T06:59:59;100736.22;;;13.39
75273;BMP280;63869;52.344;16.928;2023-04-22T07:02:25;100733.81;;;13.44
75273;BMP280;63869;52.344;16.928;2023-04-22T07:04:50;100737.31;;;13.57
75273;BMP280;63869;52.344;16.928;2023-04-22T07:07:15;100726.38;;;13.65
75273;BMP280;63869;52.344;16.928;2023-04-22T07:09:41;100733.72;;;13.77
75273;BMP280;63869;52.344;16.928;2023-04-22T07:12:06;100722.03;;;13.83
75273;BMP280;63869;52.344;16.928;2023-04-22T07:14:31;100723.66;;;13.93
75273;BMP280;63869;52.344;16.928;2023-04-22T07:16:58;100733.03;;;14.02
75273;BMP280;63869;52.344;16.928;2023-04-22T07:19:23;100726.59;;;14.12
75273;BMP280;63869;52.344;16.928;2023-04-22T07:21:49;100723.31;;;14.20
75273;BMP280;63869;52.344;16.928;2023-04-22T07:24:15;100731.47;;;14.29
75273;BMP280;63869;52.344;16.928;2023-04-22T07:26:42;100736.56;;;14.40
75273;BMP280;63869;52.344;16.928;2023-04-22T07:29:07;100731.69;;;14.48
75273;BMP280;63869;52.344;16.928;2023-04-22T07:31:34;100736.03;;;14.58
75273;BMP280;63869;52.344;16.928;2023-04-22T07:34:00;100732.69;;;14.66
75273;BMP280;63869;52.344;16.928;2023-04-22T07:36:26;100723.97;;;14.75
75273;BMP280;63869;52.344;16.928;2023-04-22T07:38:51;100731.81;;;14.82
75273;BMP280;63869;52.344;16.928;2023-04-22T07:41:16;100726.50;;;14.91
75273;BMP280;63869;52.344;16.928;2023-04-22T07:43:42;100727.38;;;15.01
75273;BMP280;63869;52.344;16.928;2023-04-22T07:46:07;100722.81;;;15.11
75273;BMP280;63869;52.344;16.928;2023-04-22T07:48:33;100732.50;;;15.21
75273;BMP280;63869;52.344;16.928;2023-04-22T07:50:58;100726.88;;;15.28
75273;BMP280;63869;52.344;16.928;2023-04-22T07:53:23;100731.00;;;15.41
75273;BMP280;63869;52.344;16.928;2023-04-22T07:55:49;100720.75;;;15.49
75273;BMP280;63869;52.344;16.928;2023-04-22T07:58:15;100730.06;;;15.57
75273;BMP280;63869;52.344;16.928;2023-04-22T08:00:40;100726.25;;;15.67
75273;BMP280;63869;52.344;16.928;2023-04-22T08:03:05;100723.66;;;15.76
75273;BMP280;63869;52.344;16.928;2023-04-22T08:05:31;100733.28;;;15.87
75273;BMP280;63869;52.344;16.928;2023-04-22T08:07:56;100725.84;;;16.00
75273;BMP280;63869;52.344;16.928;2023-04-22T08:10:21;100727.13;;;16.08
75273;BMP280;63869;52.344;16.928;2023-04-22T08:12:47;100725.19;;;16.17
75273;BMP280;63869;52.344;16.928;2023-04-22T08:15:12;100716.84;;;16.25
75273;BMP280;63869;52.344;16.928;2023-04-22T08:17:38;100723.34;;;16.36
75273;BMP280;63869;52.344;16.928;2023-04-22T08:20:04;100724.88;;;16.46
75273;BMP280;63869;52.344;16.928;2023-04-22T08:22:30;100721.00;;;16.56
75273;BMP280;63869;52.344;16.928;2023-04-22T08:24:56;100726.25;;;16.69
75273;BMP280;63869;52.344;16.928;2023-04-22T08:27:21;100720.91;;;16.78
75273;BMP280;63869;52.344;16.928;2023-04-22T08:29:47;100724.38;;;16.88
75273;BMP280;63869;52.344;16.928;2023-04-22T08:32:12;100717.03;;;16.97
75273;BMP280;63869;52.344;16.928;2023-04-22T08:34:37;100709.97;;;17.09
75273;BMP280;63869;52.344;16.928;2023-04-22T08:37:03;100704.88;;;17.20
75273;BMP280;63869;52.344;16.928;2023-04-22T08:39:29;100711.31;;;17.32
75273;BMP280;63869;52.344;16.928;2023-04-22T08:41:55;100709.03;;;17.39
75273;BMP280;63869;52.344;16.928;2023-04-22T08:44:22;100707.84;;;17.50
75273;BMP280;63869;52.344;16.928;2023-04-22T08:46:50;100704.81;;;17.57
75273;BMP280;63869;52.344;16.928;2023-04-22T08:49:17;100702.41;;;17.68
75273;BMP280;63869;52.344;16.928;2023-04-22T08:51:43;100698.34;;;17.72
75273;BMP280;63869;52.344;16.928;2023-04-22T08:54:09;100708.97;;;17.85
75273;BMP280;63869;52.344;16.928;2023-04-22T08:56:36;100708.63;;;17.92
75273;BMP280;63869;52.344;16.928;2023-04-22T08:59:02;100696.28;;;18.00
75273;BMP280;63869;52.344;16.928;2023-04-22T09:01:30;100703.75;;;18.14
75273;BMP280;63869;52.344;16.928;2023-04-22T09:03:58;100705.47;;;18.27
75273;BMP280;63869;52.344;16.928;2023-04-22T09:06:23;100705.41;;;18.36
75273;BMP280;63869;52.344;16.928;2023-04-22T09:08:48;100699.97;;;18.45
75273;BMP280;63869;52.344;16.928;2023-04-22T09:11:15;100704.28;;;18.51
75273;BMP280;63869;52.344;16.928;2023-04-22T09:13:41;100706.03;;;18.64
75273;BMP280;63869;52.344;16.928;2023-04-22T09:16:06;100707.06;;;18.66
75273;BMP280;63869;52.344;16.928;2023-04-22T09:18:39;100701.59;;;18.75
75273;BMP280;63869;52.344;16.928;2023-04-22T09:21:05;100707.38;;;18.83
75273;BMP280;63869;52.344;16.928;2023-04-22T09:23:30;100699.19;;;18.92
75273;BMP280;63869;52.344;16.928;2023-04-22T09:25:56;100699.56;;;19.00
75273;BMP280;63869;52.344;16.928;2023-04-22T09:28:22;100704.63;;;19.07
75273;BMP280;63869;52.344;16.928;2023-04-22T09:30:47;100695.84;;;19.12
75273;BMP280;63869;52.344;16.928;2023-04-22T09:33:13;100698.84;;;19.28
75273;BMP280;63869;52.344;16.928;2023-04-22T09:35:40;100688.97;;;19.40
75273;BMP280;63869;52.344;16.928;2023-04-22T09:38:07;100696.06;;;19.52
75273;BMP280;63869;52.344;16.928;2023-04-22T09:40:34;100694.66;;;19.57
75273;BMP280;63869;52.344;16.928;2023-04-22T09:43:06;100694.75;;;19.62
75273;BMP280;63869;52.344;16.928;2023-04-22T09:45:33;100687.72;;;19.70
75273;BMP280;63869;52.344;16.928;2023-04-22T09:48:16;100693.50;;;19.78
75273;BMP280;63869;52.344;16.928;2023-04-22T09:50:44;100682.44;;;19.82
75273;BMP280;63869;52.344;16.928;2023-04-22T09:53:14;100687.22;;;19.87
75273;BMP280;63869;52.344;16.928;2023-04-22T09:55:48;100680.16;;;19.95
75273;BMP280;63869;52.344;16.928;2023-04-22T09:58:17;100678.75;;;19.99
75273;BMP280;63869;52.344;16.928;2023-04-22T10:00:48;100677.78;;;20.02
75273;BMP280;63869;52.344;16.928;2023-04-22T10:03:14;100673.66;;;20.07
75273;BMP280;63869;52.344;16.928;2023-04-22T10:05:39;100669.94;;;20.04
75273;BMP280;63869;52.344;16.928;2023-04-22T10:08:07;100671.97;;;20.09
75273;BMP280;63869;52.344;16.928;2023-04-22T10:10:33;100671.00;;;20.12
75273;BMP280;63869;52.344;16.928;2023-04-22T10:12:59;100677.75;;;20.17
75273;BMP280;63869;52.344;16.928;2023-04-22T10:15:25;100671.97;;;20.30
75273;BMP280;63869;52.344;16.928;2023-04-22T10:17:55;100676.00;;;20.34
75273;BMP280;63869;52.344;16.928;2023-04-22T10:20:21;100667.63;;;20.38
75273;BMP280;63869;52.344;16.928;2023-04-22T10:22:47;100661.25;;;20.41
75273;BMP280;63869;52.344;16.928;2023-04-22T10:25:33;100662.28;;;20.43
75273;BMP280;63869;52.344;16.928;2023-04-22T10:28:04;100663.38;;;20.51
75273;BMP280;63869;52.344;16.928;2023-04-22T10:30:32;100662.88;;;20.53
75273;BMP280;63869;52.344;16.928;2023-04-22T10:33:36;100649.16;;;20.42
75273;BMP280;63869;52.344;16.928;2023-04-22T10:36:06;100657.09;;;20.45
75273;BMP280;63869;52.344;16.928;2023-04-22T10:41:13;100657.59;;;20.70
75273;BMP280;63869;52.344;16.928;2023-04-22T10:43:47;100657.41;;;20.73
75273;BMP280;63869;52.344;16.928;2023-04-22T10:51:55;100650.41;;;20.92
75273;BMP280;63869;52.344;16.928;2023-04-22T10:57:08;100642.81;;;20.96
75273;BMP280;63869;52.344;16.928;2023-04-22T10:59:41;100638.13;;;20.97
75273;BMP280;63869;52.344;16.928;2023-04-22T11:02:08;100629.25;;;21.02
75273;BMP280;63869;52.344;16.928;2023-04-22T11:04:35;100636.91;;;21.03
75273;BMP280;63869;52.344;16.928;2023-04-22T11:07:13;100635.78;;;21.10
75273;BMP280;63869;52.344;16.928;2023-04-22T11:09:43;100632.31;;;21.15
75273;BMP280;63869;52.344;16.928;2023-04-22T11:15:00;100626.38;;;21.11
75273;BMP280;63869;52.344;16.928;2023-04-22T11:17:26;100616.94;;;21.07
75273;BMP280;63869;52.344;16.928;2023-04-22T11:19:51;100625.88;;;21.13
75273;BMP280;63869;52.344;16.928;2023-04-22T11:22:22;100610.34;;;21.19
75273;BMP280;63869;52.344;16.928;2023-04-22T11:24:58;100602.50;;;21.26
75273;BMP280;63869;52.344;16.928;2023-04-22T11:27:24;100604.25;;;21.29
75273;BMP280;63869;52.344;16.928;2023-04-22T11:32:29;100597.47;;;21.51
75273;BMP280;63869;52.344;16.928;2023-04-22T11:34:55;100596.00;;;21.55
75273;BMP280;63869;52.344;16.928;2023-04-22T11:37:21;100583.63;;;21.60
75273;BMP280;63869;52.344;16.928;2023-04-22T11:39:47;100587.38;;;21.62
75273;BMP280;63869;52.344;16.928;2023-04-22T11:42:15;100588.88;;;21.63
75273;BMP280;63869;52.344;16.928;2023-04-22T11:44:43;100583.91;;;21.62
75273;BMP280;63869;52.344;16.928;2023-04-22T11:47:08;100583.59;;;21.54
75273;BMP280;63869;52.344;16.928;2023-04-22T11:49:35;100579.56;;;21.38
75273;BMP280;63869;52.344;16.928;2023-04-22T11:52:00;100571.34;;;21.27
75273;BMP280;63869;52.344;16.928;2023-04-22T11:54:34;100573.84;;;21.31
75273;BMP280;63869;52.344;16.928;2023-04-22T11:57:05;100571.66;;;21.40
75273;BMP280;63869;52.344;16.928;2023-04-22T11:59:30;100564.81;;;21.56
75273;BMP280;63869;52.344;16.928;2023-04-22T12:01:56;100566.41;;;21.79
75273;BMP280;63869;52.344;16.928;2023-04-22T12:04:22;100565.00;;;22.01
75273;BMP280;63869;52.344;16.928;2023-04-22T12:06:50;100570.50;;;22.28
75273;BMP280;63869;52.344;16.928;2023-04-22T12:09:15;100560.41;;;22.51
75273;BMP280;63869;52.344;16.928;2023-04-22T12:11:44;100568.09;;;22.75
75273;BMP280;63869;52.344;16.928;2023-04-22T12:14:10;100558.38;;;22.96
75273;BMP280;63869;52.344;16.928;2023-04-22T12:16:42;100557.13;;;23.20
75273;BMP280;63869;52.344;16.928;2023-04-22T12:19:08;100568.22;;;23.38
75273;BMP280;63869;52.344;16.928;2023-04-22T12:21:33;100557.22;;;23.55
75273;BMP280;63869;52.344;16.928;2023-04-22T12:24:01;100559.88;;;23.77
75273;BMP280;63869;52.344;16.928;2023-04-22T12:26:30;100558.78;;;23.97
75273;BMP280;63869;52.344;16.928;2023-04-22T12:28:57;100553.41;;;24.16
75273;BMP280;63869;52.344;16.928;2023-04-22T12:31:22;100549.84;;;24.32
75273;BMP280;63869;52.344;16.928;2023-04-22T12:33:48;100553.63;;;24.53
75273;BMP280;63869;52.344;16.928;2023-04-22T12:36:14;100541.78;;;24.69
75273;BMP280;63869;52.344;16.928;2023-04-22T12:38:39;100546.72;;;24.76
75273;BMP280;63869;52.344;16.928;2023-04-22T12:41:06;100549.06;;;24.91
75273;BMP280;63869;52.344;16.928;2023-04-22T12:43:32;100545.19;;;25.05
75273;BMP280;63869;52.344;16.928;2023-04-22T12:46:03;100529.34;;;25.17
75273;BMP280;63869;52.344;16.928;2023-04-22T12:48:29;100537.50;;;25.41
75273;BMP280;63869;52.344;16.928;2023-04-22T12:50:54;100538.88;;;25.53
75273;BMP280;63869;52.344;16.928;2023-04-22T12:53:21;100539.06;;;25.74
75273;BMP280;63869;52.344;16.928;2023-04-22T12:55:46;100524.91;;;25.88
75273;BMP280;63869;52.344;16.928;2023-04-22T12:58:12;100514.53;;;26.00
75273;BMP280;63869;52.344;16.928;2023-04-22T13:00:38;100513.56;;;26.11
75273;BMP280;63869;52.344;16.928;2023-04-22T13:03:03;100506.75;;;26.17
75273;BMP280;63869;52.344;16.928;2023-04-22T13:05:29;100514.25;;;26.30
75273;BMP280;63869;52.344;16.928;2023-04-22T13:07:54;100513.88;;;26.52
75273;BMP280;63869;52.344;16.928;2023-04-22T13:10:19;100512.59;;;26.66
75273;BMP280;63869;52.344;16.928;2023-04-22T13:12:47;100501.22;;;26.75
75273;BMP280;63869;52.344;16.928;2023-04-22T13:15:12;100497.81;;;26.96
75273;BMP280;63869;52.344;16.928;2023-04-22T13:17:38;100496.72;;;27.25
75273;BMP280;63869;52.344;16.928;2023-04-22T13:20:05;100497.31;;;27.52
75273;BMP280;63869;52.344;16.928;2023-04-22T13:22:34;100487.84;;;27.73
75273;BMP280;63869;52.344;16.928;2023-04-22T13:25:00;100489.91;;;27.81
75273;BMP280;63869;52.344;16.928;2023-04-22T13:27:25;100487.97;;;27.89
75273;BMP280;63869;52.344;16.928;2023-04-22T13:29:50;100492.31;;;28.05
75273;BMP280;63869;52.344;16.928;2023-04-22T13:32:16;100478.31;;;28.23
75273;BMP280;63869;52.344;16.928;2023-04-22T13:34:41;100484.66;;;28.39
75273;BMP280;63869;52.344;16.928;2023-04-22T13:37:07;100482.19;;;28.56
75273;BMP280;63869;52.344;16.928;2023-04-22T13:39:32;100482.56;;;28.60
75273;BMP280;63869;52.344;16.928;2023-04-22T13:41:58;100482.06;;;28.69
75273;BMP280;63869;52.344;16.928;2023-04-22T13:44:23;100479.56;;;28.87
75273;BMP280;63869;52.344;16.928;2023-04-22T13:46:49;100479.22;;;28.98
75273;BMP280;63869;52.344;16.928;2023-04-22T13:49:14;100471.75;;;29.21
75273;BMP280;63869;52.344;16.928;2023-04-22T13:51:39;100467.75;;;29.52
75273;BMP280;63869;52.344;16.928;2023-04-22T13:54:06;100468.47;;;29.68
75273;BMP280;63869;52.344;16.928;2023-04-22T13:56:33;100469.22;;;29.91
75273;BMP280;63869;52.344;16.928;2023-04-22T13:58:58;100463.84;;;30.01
75273;BMP280;63869;52.344;16.928;2023-04-22T14:01:24;100459.06;;;30.01